Time;durP1;ratioP1;P1;durP2;ratioP2;P2;SDS_P1;SDS_P2;PMS_P1;PMS_P2;Temp;Humidity;BMP_temperature;BMP_pressure;BME280_temperature;BME280_humidity;BME280_pressure;Samples;Min_cycle;Max_cycle;Signal;HPM_P1;HPM_P2
2023/01/08 14:29:02;;;;;;;;;;;;;;;;;;;;;
2023/01/08 14:31:30;;;;;;;5.32;1.50;;;15.50;99.90;;;;;;5159833;27;20034;-92
2023/01/08 15:30:45;;;;;;;4.22;2.45;;;9.30;99.90;;;;;;5084954;28;20491;-90
2023/01/08 15:33:39;;;;;;;3.50;1.80;;;9.30;99.90;;;;;;5070382;28;20029;-92
2023/01/08 15:40:18;;;;;;;3.60;1.88;;;9.30;99.90;;;;;;5013329;28;20045;-93
2023/01/08 19:22:08;;;;;;;;;;;;;;;;;;;;;
2023/01/08 19:27:36;;;;;;;13.10;6.55;;;7.00;99.90;;;;;;6210338;23;20000;-93
2023/01/08 19:30:34;;;;;;;;;;;;;;;;;;;;;
2023/01/08 19:33:32;;;;;;;16.05;5.30;;;7.00;99.90;;;;;;6208858;23;20100;-92
2023/01/08 19:36:14;;;;;;;;;;;;;;;;;;;;;
2023/01/08 19:38:49;;;;;;;17.50;4.93;;;6.90;99.90;;;;;;6209231;23;20091;-91
2023/01/08 19:44:20;;;;;;;17.15;5.20;;;6.90;99.90;;;;;;6209064;23;20008;-91
2023/01/08 19:46:53;;;;;;;18.67;5.72;;;6.90;99.90;;;;;;6184089;23;20012;-93
2023/01/08 19:49:24;;;;;;;20.00;5.63;;;6.90;99.90;;;;;;6183397;23;20013;-92
2023/01/08 19:51:51;;;;;;;15.13;4.72;;;6.90;99.90;;;;;;6236078;22;20059;-91
2023/01/08 20:08:30;;;;;;;16.45;5.38;;;6.90;99.90;;;;;;6091574;23;20010;-92
2023/01/08 20:17:49;;;;;;;19.85;4.60;;;6.90;99.90;;;;;;6066351;23;20103;-91
2023/01/08 20:24:13;;;;;;;16.83;4.70;;;6.80;99.90;;;;;;5948720;24;20032;-92
2023/01/08 20:27:02;;;;;;;14.05;5.28;;;6.70;99.90;;;;;;5970862;23;20011;-93
2023/01/08 20:29:46;;;;;;;19.30;5.88;;;6.70;99.90;;;;;;6012715;23;20011;-93
2023/01/08 20:46:00;;;;;;;;;;;;;;;;;;;;;
2023/01/08 20:48:42;;;;;;;14.30;4.78;;;6.70;99.90;;;;;;5923993;24;20088;-91
2023/01/08 20:55:27;;;;;;;;;;;;;;;;;;;;;
2023/01/08 20:58:43;;;;;;;;;;;;;;;;;;;;;
2023/01/08 21:01:55;;;;;;;;;;;;;;;;;;;;;
2023/01/08 21:07:41;;;;;;;;;;;;;;;;;;;;;
2023/01/08 21:10:38;;;;;;;26.23;4.45;;;7.00;99.90;;;;;;6284767;22;20024;-92
2023/01/08 21:13:27;;;;;;;20.02;3.90;;;7.10;99.90;;;;;;6260327;22;20455;-94
2023/01/08 21:16:21;;;;;;;16.60;3.70;;;7.10;99.90;;;;;;6273680;22;20328;-92
2023/01/08 21:22:14;;;;;;;14.60;3.90;;;7.20;99.90;;;;;;6210439;23;20001;-92
2023/01/08 21:24:42;;;;;;;21.33;4.35;;;7.10;99.90;;;;;;6199983;23;20439;-91
2023/01/08 21:27:10;;;;;;;13.18;3.45;;;7.30;99.90;;;;;;6186113;23;20000;-92
2023/01/08 21:30:06;;;;;;;;;;;;;;;;;;;;;
2023/01/08 21:35:38;;;;;;;;;;;;;;;;;;;;;
2023/01/08 21:38:39;;;;;;;18.70;3.97;;;7.30;99.90;;;;;;6274327;22;20146;-92
2023/01/08 21:41:07;;;;;;;21.52;3.80;;;7.50;99.90;;;;;;6272687;22;20031;-93
2023/01/08 21:46:31;;;;;;;26.00;4.00;;;7.40;99.90;;;;;;6273628;22;20049;-91
2023/01/08 21:49:09;;;;;;;;;;;;;;;;;;;;;
2023/01/08 21:54:55;;;;;;;;;;;;;;;;;;;;;
2023/01/08 21:57:59;;;;;;;;;;;;;;;;;;;;;
2023/01/08 22:00:41;;;;;;;;;;;;;;;;;;;;;
2023/01/08 22:03:09;;;;;;;23.08;4.20;;;7.20;99.90;;;;;;6272803;22;20078;-91
2023/01/08 22:05:35;;;;;;;19.37;4.17;;;7.10;99.90;;;;;;6272670;22;20004;-92
2023/01/08 22:08:00;;;;;;;24.73;4.70;;;7.10;99.90;;;;;;6272805;22;20007;-91
2023/01/08 22:10:33;;;;;;;24.67;4.20;;;7.20;99.90;;;;;;6272667;22;20745;-92
2023/01/08 22:12:59;;;;;;;22.20;4.70;;;7.10;99.90;;;;;;6272757;22;20082;-92
2023/01/08 22:15:27;;;;;;;29.10;4.22;;;7.20;99.90;;;;;;6272096;22;20023;-93
2023/01/08 22:17:55;;;;;;;21.92;4.50;;;7.20;99.90;;;;;;6273494;22;20082;-90
2023/01/08 22:20:21;;;;;;;33.00;4.90;;;7.10;99.90;;;;;;6271956;22;20026;-91
2023/01/08 22:22:48;;;;;;;19.45;4.32;;;7.20;99.90;;;;;;6272454;22;20047;-93
2023/01/08 22:25:17;;;;;;;19.40;4.13;;;7.10;99.90;;;;;;6271622;22;20004;-91
2023/01/08 22:27:42;;;;;;;23.67;4.00;;;7.20;99.90;;;;;;6272735;22;19999;-91
2023/01/08 22:30:09;;;;;;;27.50;4.90;;;7.50;99.90;;;;;;6271946;22;20459;-91
2023/01/08 22:32:34;;;;;;;25.90;4.07;;;7.20;99.90;;;;;;6272094;22;20000;-92
2023/01/08 22:35:00;;;;;;;23.75;4.43;;;7.40;99.90;;;;;;6272760;22;20462;-91
2023/01/08 22:37:26;;;;;;;28.15;5.60;;;7.40;99.90;;;;;;6271614;22;20000;-90
2023/01/08 22:39:51;;;;;;;29.67;4.55;;;7.40;99.90;;;;;;6271566;22;20359;-91
2023/01/08 22:42:17;;;;;;;26.88;4.32;;;7.40;99.90;;;;;;6271708;22;20363;-92
2023/01/08 22:44:43;;;;;;;34.70;6.00;;;7.40;99.90;;;;;;6273484;22;20006;-90
2023/01/08 22:47:08;;;;;;;29.95;4.50;;;7.60;99.90;;;;;;6271155;22;19999;-91
2023/01/08 22:49:35;;;;;;;27.48;5.00;;;7.50;99.90;;;;;;6271973;22;20042;-91
2023/01/08 22:52:02;;;;;;;27.70;4.68;;;7.50;99.90;;;;;;6273066;22;20000;-90
2023/01/08 22:54:27;;;;;;;32.33;5.60;;;7.60;99.90;;;;;;6272018;22;20011;-92
2023/01/08 22:56:55;;;;;;;28.48;4.95;;;7.60;99.90;;;;;;6272122;22;20014;-91
2023/01/08 22:59:21;;;;;;;24.58;4.43;;;7.70;99.90;;;;;;6272069;22;20038;-90
2023/01/08 23:01:47;;;;;;;28.48;4.68;;;7.80;99.90;;;;;;6271752;22;20428;-92
2023/01/08 23:04:14;;;;;;;28.67;4.50;;;7.80;99.90;;;;;;6271690;22;20018;-92
2023/01/08 23:06:42;;;;;;;31.02;5.15;;;8.10;99.90;;;;;;6271866;22;20420;-91
2023/01/08 23:09:07;;;;;;;23.55;4.00;;;8.10;99.90;;;;;;6271165;22;20003;-91
2023/01/08 23:11:33;;;;;;;32.38;4.60;;;8.30;99.90;;;;;;6273847;22;20014;-90
2023/01/08 23:13:59;;;;;;;27.75;4.75;;;8.20;99.90;;;;;;6273138;22;20339;-90
2023/01/08 23:16:25;;;;;;;31.25;4.55;;;8.30;99.90;;;;;;6271505;22;20029;-90
2023/01/08 23:18:52;;;;;;;21.80;3.85;;;8.30;99.90;;;;;;6271777;22;20117;-91
2023/01/08 23:21:20;;;;;;;25.38;4.80;;;8.30;99.90;;;;;;6272064;22;20162;-92
2023/01/08 23:23:48;;;;;;;22.40;3.97;;;8.30;99.90;;;;;;6272840;22;20015;-91
2023/01/08 23:26:23;;;;;;;;;;;8.20;99.90;;;;;;6273219;22;20026;-91
2023/01/08 23:28:50;;;;;;;16.30;2.92;;;8.20;99.90;;;;;;6272919;22;19903;-91
2023/01/08 23:31:21;;;;;;;21.95;3.83;;;8.10;99.90;;;;;;6272132;22;20003;-91
2023/01/08 23:33:47;;;;;;;28.48;4.10;;;8.00;99.90;;;;;;6274458;22;20000;-90
2023/01/08 23:36:17;;;;;;;24.80;4.28;;;8.10;99.90;;;;;;6283825;22;20094;-91
2023/01/08 23:38:44;;;;;;;28.02;4.47;;;8.20;99.90;;;;;;6295110;22;19991;-90
2023/01/08 23:41:10;;;;;;;22.02;4.60;;;8.10;99.90;;;;;;6298355;22;19999;-91
2023/01/08 23:43:35;;;;;;;21.98;3.83;;;8.20;99.90;;;;;;6286874;22;20008;-90
2023/01/08 23:46:03;;;;;;;16.23;3.75;;;8.20;99.90;;;;;;6275411;22;20010;-90
2023/01/08 23:48:29;;;;;;;20.15;3.20;;;8.20;99.90;;;;;;6271989;22;20026;-90
2023/01/08 23:50:55;;;;;;;29.48;4.35;;;8.10;99.90;;;;;;6271933;22;20226;-90
2023/01/08 23:53:23;;;;;;;29.50;4.40;;;8.20;99.90;;;;;;6270849;22;20090;-92
2023/01/08 23:55:49;;;;;;;19.50;3.08;;;8.20;99.90;;;;;;6271413;22;20008;-89
2023/01/08 23:58:14;;;;;;;20.63;4.05;;;8.10;99.90;;;;;;6271495;22;20035;-92
